sensor_id;sensor_type;location;lat;lon;timestamp;pressure;altitude;pressure_sealevel;temperature;humidity
46710;BME280;32442;51.514;-0.178;2023-02-28T00:01:21;103016.63;;;22.24;35.75
46710;BME280;32442;51.514;-0.178;2023-02-28T00:03:48;103011.28;;;22.28;35.74
46710;BME280;32442;51.514;-0.178;2023-02-28T00:51:42;103010.59;;;22.10;35.88
46710;BME280;32442;51.514;-0.178;2023-02-28T00:54:09;103010.56;;;22.05;36.37
46710;BME280;32442;51.514;-0.178;2023-02-28T00:56:36;103014.75;;;22.03;36.15
46710;BME280;32442;51.514;-0.178;2023-02-28T00:59:02;103016.97;;;22.01;36.02
46710;BME280;32442;51.514;-0.178;2023-02-28T01:01:29;103019.50;;;21.97;36.54
46710;BME280;32442;51.514;-0.178;2023-02-28T01:03:57;103025.94;;;21.93;36.51
46710;BME280;32442;51.514;-0.178;2023-02-28T01:06:23;103018.50;;;21.87;36.77
46710;BME280;32442;51.514;-0.178;2023-02-28T01:08:50;103023.28;;;21.86;36.97
46710;BME280;32442;51.514;-0.178;2023-02-28T01:11:17;103020.72;;;21.80;36.52
46710;BME280;32442;51.514;-0.178;2023-02-28T01:13:45;103024.38;;;21.80;36.70
46710;BME280;32442;51.514;-0.178;2023-02-28T01:16:12;103020.66;;;21.74;37.14
46710;BME280;32442;51.514;-0.178;2023-02-28T01:18:39;103021.75;;;21.73;37.19
46710;BME280;32442;51.514;-0.178;2023-02-28T01:21:08;103020.28;;;21.66;37.32
46710;BME280;32442;51.514;-0.178;2023-02-28T01:23:35;103020.78;;;21.63;37.64
46710;BME280;32442;51.514;-0.178;2023-02-28T01:26:04;103024.16;;;21.60;37.77
46710;BME280;32442;51.514;-0.178;2023-02-28T01:28:31;103018.47;;;21.55;37.78
46710;BME280;32442;51.514;-0.178;2023-02-28T01:30:58;103026.00;;;21.49;37.63
46710;BME280;32442;51.514;-0.178;2023-02-28T01:33:25;103027.94;;;21.44;38.16
46710;BME280;32442;51.514;-0.178;2023-02-28T01:38:22;103027.25;;;21.37;38.26
46710;BME280;32442;51.514;-0.178;2023-02-28T01:40:49;103028.97;;;21.38;37.84
46710;BME280;32442;51.514;-0.178;2023-02-28T01:43:19;103028.38;;;21.36;38.06
46710;BME280;32442;51.514;-0.178;2023-02-28T01:45:46;103026.03;;;21.27;38.40
46710;BME280;32442;51.514;-0.178;2023-02-28T01:48:13;103019.00;;;21.25;37.99
46710;BME280;32442;51.514;-0.178;2023-02-28T01:50:40;103016.19;;;21.25;38.22
46710;BME280;32442;51.514;-0.178;2023-02-28T01:53:10;103021.75;;;21.20;38.58
46710;BME280;32442;51.514;-0.178;2023-02-28T01:55:39;103023.38;;;21.16;38.61
46710;BME280;32442;51.514;-0.178;2023-02-28T01:58:06;103026.09;;;21.11;38.40
46710;BME280;32442;51.514;-0.178;2023-02-28T02:00:35;103028.91;;;21.11;38.73
46710;BME280;32442;51.514;-0.178;2023-02-28T02:03:05;103022.34;;;21.05;38.54
46710;BME280;32442;51.514;-0.178;2023-02-28T02:05:32;103032.22;;;21.08;38.44
46710;BME280;32442;51.514;-0.178;2023-02-28T02:08:02;103025.69;;;21.02;38.66
46710;BME280;32442;51.514;-0.178;2023-02-28T02:15:30;103028.38;;;20.92;38.65
46710;BME280;32442;51.514;-0.178;2023-02-28T02:18:01;103029.47;;;20.91;38.89
46710;BME280;32442;51.514;-0.178;2023-02-28T02:23:07;103022.69;;;20.87;38.54
46710;BME280;32442;51.514;-0.178;2023-02-28T02:43:02;103027.66;;;20.63;38.77
46710;BME280;32442;51.514;-0.178;2023-02-28T02:45:32;103035.53;;;20.61;38.56
46710;BME280;32442;51.514;-0.178;2023-02-28T02:48:03;103020.28;;;20.57;38.74
46710;BME280;32442;51.514;-0.178;2023-02-28T02:50:34;103029.22;;;20.54;38.83
46710;BME280;32442;51.514;-0.178;2023-02-28T02:53:03;103024.38;;;20.50;39.10
46710;BME280;32442;51.514;-0.178;2023-02-28T02:55:32;103026.84;;;20.46;38.92
46710;BME280;32442;51.514;-0.178;2023-02-28T02:58:04;103028.22;;;20.44;39.04
46710;BME280;32442;51.514;-0.178;2023-02-28T03:00:34;103019.44;;;20.40;39.35
46710;BME280;32442;51.514;-0.178;2023-02-28T03:03:02;103020.81;;;20.37;39.30
46710;BME280;32442;51.514;-0.178;2023-02-28T03:05:32;103021.06;;;20.36;39.64
46710;BME280;32442;51.514;-0.178;2023-02-28T03:08:03;103012.31;;;20.32;39.40
46710;BME280;32442;51.514;-0.178;2023-02-28T03:10:32;103015.13;;;20.32;39.69
46710;BME280;32442;51.514;-0.178;2023-02-28T03:13:03;103016.50;;;20.30;39.82
46710;BME280;32442;51.514;-0.178;2023-02-28T03:15:34;103017.56;;;20.29;39.63
46710;BME280;32442;51.514;-0.178;2023-02-28T03:30:35;103027.09;;;20.11;40.12
46710;BME280;32442;51.514;-0.178;2023-02-28T03:35:38;103031.25;;;20.09;40.35
46710;BME280;32442;51.514;-0.178;2023-02-28T03:38:09;103025.06;;;20.07;40.08
46710;BME280;32442;51.514;-0.178;2023-02-28T03:40:41;103024.47;;;20.05;40.35
46710;BME280;32442;51.514;-0.178;2023-02-28T03:43:10;103028.63;;;20.02;40.65
46710;BME280;32442;51.514;-0.178;2023-02-28T03:45:38;103029.13;;;19.99;40.63
46710;BME280;32442;51.514;-0.178;2023-02-28T03:53:09;103038.56;;;19.93;40.89
46710;BME280;32442;51.514;-0.178;2023-02-28T03:55:39;103045.53;;;19.90;40.79
46710;BME280;32442;51.514;-0.178;2023-02-28T03:58:12;103044.66;;;19.90;40.83
46710;BME280;32442;51.514;-0.178;2023-02-28T04:00:44;103046.03;;;19.87;40.72
46710;BME280;32442;51.514;-0.178;2023-02-28T04:03:12;103037.00;;;19.85;40.42
46710;BME280;32442;51.514;-0.178;2023-02-28T04:08:14;103033.00;;;19.81;40.86
46710;BME280;32442;51.514;-0.178;2023-02-28T04:10:41;103035.25;;;19.79;40.65
46710;BME280;32442;51.514;-0.178;2023-02-28T04:13:11;103042.19;;;19.77;40.78
46710;BME280;32442;51.514;-0.178;2023-02-28T04:15:38;103041.34;;;19.76;40.88
46710;BME280;32442;51.514;-0.178;2023-02-28T04:18:05;103039.91;;;19.74;40.62
46710;BME280;32442;51.514;-0.178;2023-02-28T04:20:32;103045.50;;;19.74;40.70
46710;BME280;32442;51.514;-0.178;2023-02-28T04:22:59;103040.41;;;19.71;40.81
46710;BME280;32442;51.514;-0.178;2023-02-28T04:25:25;103052.72;;;19.70;40.96
46710;BME280;32442;51.514;-0.178;2023-02-28T04:27:52;103052.38;;;19.66;40.95
46710;BME280;32442;51.514;-0.178;2023-02-28T04:30:19;103045.94;;;19.66;40.63
46710;BME280;32442;51.514;-0.178;2023-02-28T04:32:49;103051.78;;;19.64;40.95
46710;BME280;32442;51.514;-0.178;2023-02-28T04:35:15;103051.19;;;19.62;40.85
46710;BME280;32442;51.514;-0.178;2023-02-28T04:37:43;103046.91;;;19.60;40.72
46710;BME280;32442;51.514;-0.178;2023-02-28T04:40:10;103049.97;;;19.58;40.62
46710;BME280;32442;51.514;-0.178;2023-02-28T04:42:37;103055.00;;;19.56;40.72
46710;BME280;32442;51.514;-0.178;2023-02-28T04:45:04;103048.78;;;19.54;41.03
46710;BME280;32442;51.514;-0.178;2023-02-28T04:47:31;103049.28;;;19.51;40.67
46710;BME280;32442;51.514;-0.178;2023-02-28T04:49:58;103049.28;;;19.51;40.55
46710;BME280;32442;51.514;-0.178;2023-02-28T04:52:24;103051.75;;;19.47;40.89
46710;BME280;32442;51.514;-0.178;2023-02-28T04:54:53;103060.38;;;19.46;40.88
46710;BME280;32442;51.514;-0.178;2023-02-28T04:57:20;103057.81;;;19.44;40.73
46710;BME280;32442;51.514;-0.178;2023-02-28T04:59:47;103060.88;;;19.43;40.79
46710;BME280;32442;51.514;-0.178;2023-02-28T05:02:13;103059.41;;;19.40;40.95
46710;BME280;32442;51.514;-0.178;2023-02-28T05:04:40;103054.06;;;19.39;40.70
46710;BME280;32442;51.514;-0.178;2023-02-28T05:07:07;103055.16;;;19.38;40.68
46710;BME280;32442;51.514;-0.178;2023-02-28T05:09:34;103057.34;;;19.36;40.80
46710;BME280;32442;51.514;-0.178;2023-02-28T05:12:03;103061.50;;;19.33;41.00
46710;BME280;32442;51.514;-0.178;2023-02-28T05:14:30;103061.75;;;19.32;40.62
46710;BME280;32442;51.514;-0.178;2023-02-28T05:16:59;103069.81;;;19.28;40.97
46710;BME280;32442;51.514;-0.178;2023-02-28T05:19:29;103069.81;;;19.28;40.93
46710;BME280;32442;51.514;-0.178;2023-02-28T05:21:55;103063.59;;;19.26;40.55
46710;BME280;32442;51.514;-0.178;2023-02-28T05:24:22;103061.03;;;19.25;41.00
46710;BME280;32442;51.514;-0.178;2023-02-28T05:26:51;103066.66;;;19.25;40.79
46710;BME280;32442;51.514;-0.178;2023-02-28T05:29:20;103070.66;;;19.29;40.94
46710;BME280;32442;51.514;-0.178;2023-02-28T05:31:47;103065.75;;;19.36;40.95
46710;BME280;32442;51.514;-0.178;2023-02-28T05:34:16;103069.28;;;19.43;40.63
46710;BME280;32442;51.514;-0.178;2023-02-28T05:36:43;103077.81;;;19.48;41.07
46710;BME280;32442;51.514;-0.178;2023-02-28T05:39:10;103079.59;;;19.54;40.80
46710;BME280;32442;51.514;-0.178;2023-02-28T05:41:40;103080.56;;;19.60;40.96
46710;BME280;32442;51.514;-0.178;2023-02-28T05:44:07;103080.91;;;19.63;41.08
46710;BME280;32442;51.514;-0.178;2023-02-28T05:46:34;103081.00;;;19.68;41.26
46710;BME280;32442;51.514;-0.178;2023-02-28T05:49:01;103081.13;;;19.73;41.29
46710;BME280;32442;51.514;-0.178;2023-02-28T05:51:28;103084.03;;;19.78;41.60
46710;BME280;32442;51.514;-0.178;2023-02-28T05:53:58;103087.16;;;19.82;41.54
46710;BME280;32442;51.514;-0.178;2023-02-28T05:56:27;103090.94;;;19.87;41.64
46710;BME280;32442;51.514;-0.178;2023-02-28T05:58:54;103092.75;;;19.93;41.70
46710;BME280;32442;51.514;-0.178;2023-02-28T06:03:49;103099.38;;;20.04;41.51
46710;BME280;32442;51.514;-0.178;2023-02-28T06:06:16;103092.75;;;20.10;41.20
46710;BME280;32442;51.514;-0.178;2023-02-28T06:08:45;103091.13;;;20.14;41.11
46710;BME280;32442;51.514;-0.178;2023-02-28T06:11:12;103102.47;;;20.19;41.39
46710;BME280;32442;51.514;-0.178;2023-02-28T06:13:39;103091.31;;;20.24;41.21
46710;BME280;32442;51.514;-0.178;2023-02-28T06:16:06;103093.16;;;20.30;41.17
46710;BME280;32442;51.514;-0.178;2023-02-28T06:18:33;103092.41;;;20.35;40.94
46710;BME280;32442;51.514;-0.178;2023-02-28T06:21:00;103095.25;;;20.40;40.90
46710;BME280;32442;51.514;-0.178;2023-02-28T06:23:27;103104.63;;;20.46;41.23
46710;BME280;32442;51.514;-0.178;2023-02-28T06:25:54;103104.97;;;20.49;40.80
46710;BME280;32442;51.514;-0.178;2023-02-28T06:28:25;103094.94;;;20.53;41.03
46710;BME280;32442;51.514;-0.178;2023-02-28T06:30:52;103088.56;;;20.58;40.66
46710;BME280;32442;51.514;-0.178;2023-02-28T06:33:19;103103.50;;;20.63;40.67
46710;BME280;32442;51.514;-0.178;2023-02-28T06:35:46;103096.25;;;20.67;40.66
46710;BME280;32442;51.514;-0.178;2023-02-28T06:38:13;103100.28;;;20.71;40.85
46710;BME280;32442;51.514;-0.178;2023-02-28T06:40:40;103095.84;;;20.75;40.53
46710;BME280;32442;51.514;-0.178;2023-02-28T06:43:06;103096.19;;;20.79;40.31
46710;BME280;32442;51.514;-0.178;2023-02-28T06:45:33;103088.06;;;20.82;40.06
46710;BME280;32442;51.514;-0.178;2023-02-28T06:48:00;103086.44;;;20.86;40.41
46710;BME280;32442;51.514;-0.178;2023-02-28T06:50:27;103092.41;;;20.90;39.93
46710;BME280;32442;51.514;-0.178;2023-02-28T06:52:56;103087.13;;;20.94;40.11
46710;BME280;32442;51.514;-0.178;2023-02-28T06:55:22;103089.94;;;20.94;39.83
46710;BME280;32442;51.514;-0.178;2023-02-28T06:57:49;103088.31;;;20.98;39.42
46710;BME280;32442;51.514;-0.178;2023-02-28T07:00:17;103086.06;;;21.00;39.43
46710;BME280;32442;51.514;-0.178;2023-02-28T07:02:45;103086.69;;;21.02;39.70
46710;BME280;32442;51.514;-0.178;2023-02-28T07:05:12;103089.22;;;21.03;39.23
46710;BME280;32442;51.514;-0.178;2023-02-28T07:07:39;103090.91;;;21.04;39.32
46710;BME280;32442;51.514;-0.178;2023-02-28T07:10:10;103090.41;;;21.07;39.23
46710;BME280;32442;51.514;-0.178;2023-02-28T07:12:38;103090.13;;;21.09;38.82
46710;BME280;32442;51.514;-0.178;2023-02-28T07:15:05;103098.84;;;21.07;38.60
46710;BME280;32442;51.514;-0.178;2023-02-28T07:17:32;103103.34;;;21.08;38.93
46710;BME280;32442;51.514;-0.178;2023-02-28T07:19:59;103102.69;;;21.01;38.70
46710;BME280;32442;51.514;-0.178;2023-02-28T07:22:26;103097.13;;;20.84;36.51
46710;BME280;32442;51.514;-0.178;2023-02-28T07:24:53;103107.81;;;20.88;37.37
46710;BME280;32442;51.514;-0.178;2023-02-28T07:27:20;103106.44;;;20.90;37.25
46710;BME280;32442;51.514;-0.178;2023-02-28T07:29:50;103113.25;;;20.94;37.20
46710;BME280;32442;51.514;-0.178;2023-02-28T07:32:17;103111.28;;;20.95;37.30
46710;BME280;32442;51.514;-0.178;2023-02-28T07:34:45;103112.47;;;20.99;37.28
46710;BME280;32442;51.514;-0.178;2023-02-28T07:37:12;103110.88;;;21.03;37.53
46710;BME280;32442;51.514;-0.178;2023-02-28T07:39:39;103115.09;;;21.05;37.64
46710;BME280;32442;51.514;-0.178;2023-02-28T07:42:08;103105.28;;;21.08;37.21
46710;BME280;32442;51.514;-0.178;2023-02-28T07:44:38;103103.94;;;21.10;37.14
46710;BME280;32442;51.514;-0.178;2023-02-28T07:47:08;103104.50;;;21.12;37.17
46710;BME280;32442;51.514;-0.178;2023-02-28T07:49:36;103108.56;;;21.16;37.63
46710;BME280;32442;51.514;-0.178;2023-02-28T07:52:04;103100.94;;;21.17;37.10
46710;BME280;32442;51.514;-0.178;2023-02-28T07:54:31;103099.53;;;21.14;37.06
46710;BME280;32442;51.514;-0.178;2023-02-28T07:56:58;103106.56;;;21.17;36.76
46710;BME280;32442;51.514;-0.178;2023-02-28T07:59:26;103113.84;;;21.13;36.41
46710;BME280;32442;51.514;-0.178;2023-02-28T08:01:57;103115.28;;;21.15;35.90
46710;BME280;32442;51.514;-0.178;2023-02-28T08:04:25;103106.75;;;21.10;36.11
46710;BME280;32442;51.514;-0.178;2023-02-28T08:06:52;103107.00;;;21.09;35.42
46710;BME280;32442;51.514;-0.178;2023-02-28T08:09:20;103113.47;;;21.09;35.33
46710;BME280;32442;51.514;-0.178;2023-02-28T08:11:49;103113.16;;;21.06;35.65
46710;BME280;32442;51.514;-0.178;2023-02-28T08:14:16;103115.34;;;21.04;35.78
46710;BME280;32442;51.514;-0.178;2023-02-28T08:16:45;103115.63;;;21.02;35.13
46710;BME280;32442;51.514;-0.178;2023-02-28T08:19:12;103127.72;;;21.03;35.06
46710;BME280;32442;51.514;-0.178;2023-02-28T08:21:40;103120.91;;;20.99;34.96
46710;BME280;32442;51.514;-0.178;2023-02-28T08:24:07;103119.47;;;20.96;35.23
46710;BME280;32442;51.514;-0.178;2023-02-28T08:26:34;103112.75;;;20.97;35.03
46710;BME280;32442;51.514;-0.178;2023-02-28T08:29:01;103115.28;;;20.99;34.86
46710;BME280;32442;51.514;-0.178;2023-02-28T08:31:28;103110.44;;;20.94;35.04
46710;BME280;32442;51.514;-0.178;2023-02-28T08:33:56;103116.34;;;20.93;35.22
46710;BME280;32442;51.514;-0.178;2023-02-28T08:36:25;103110.09;;;20.91;35.13
46710;BME280;32442;51.514;-0.178;2023-02-28T08:38:56;103112.06;;;20.90;35.34
46710;BME280;32442;51.514;-0.178;2023-02-28T08:41:23;103109.25;;;20.90;36.00
46710;BME280;32442;51.514;-0.178;2023-02-28T08:43:50;103109.53;;;20.89;35.67
46710;BME280;32442;51.514;-0.178;2023-02-28T08:46:18;103123.06;;;20.92;35.41
46710;BME280;32442;51.514;-0.178;2023-02-28T08:48:45;103114.31;;;20.88;35.45
46710;BME280;32442;51.514;-0.178;2023-02-28T08:51:13;103116.00;;;20.89;35.46
46710;BME280;32442;51.514;-0.178;2023-02-28T08:53:43;103113.25;;;20.94;35.54
46710;BME280;32442;51.514;-0.178;2023-02-28T08:56:12;103118.63;;;20.96;35.53
46710;BME280;32442;51.514;-0.178;2023-02-28T08:58:39;103104.03;;;20.99;35.49
46710;BME280;32442;51.514;-0.178;2023-02-28T09:01:08;103105.25;;;21.03;35.22
46710;BME280;32442;51.514;-0.178;2023-02-28T09:03:35;103094.00;;;21.03;35.21
46710;BME280;32442;51.514;-0.178;2023-02-28T09:06:03;103100.19;;;21.05;34.97
46710;BME280;32442;51.514;-0.178;2023-02-28T09:08:31;103099.34;;;21.04;35.01
46710;BME280;32442;51.514;-0.178;2023-02-28T09:11:02;103101.91;;;21.06;34.90
46710;BME280;32442;51.514;-0.178;2023-02-28T09:13:35;103100.81;;;21.07;34.67
46710;BME280;32442;51.514;-0.178;2023-02-28T09:16:03;103095.44;;;21.05;34.71
46710;BME280;32442;51.514;-0.178;2023-02-28T09:18:33;103094.34;;;21.06;34.86
46710;BME280;32442;51.514;-0.178;2023-02-28T09:21:02;103093.22;;;21.07;34.63
46710;BME280;32442;51.514;-0.178;2023-02-28T09:23:30;103090.91;;;21.04;34.99
46710;BME280;32442;51.514;-0.178;2023-02-28T09:25:57;103088.09;;;21.04;35.04
46710;BME280;32442;51.514;-0.178;2023-02-28T09:28:24;103090.91;;;21.04;34.70
46710;BME280;32442;51.514;-0.178;2023-02-28T09:30:52;103104.41;;;21.02;34.87
46710;BME280;32442;51.514;-0.178;2023-02-28T09:33:23;103096.13;;;20.96;34.99
46710;BME280;32442;51.514;-0.178;2023-02-28T09:35:56;103097.00;;;20.96;34.54
46710;BME280;32442;51.514;-0.178;2023-02-28T09:38:24;103103.38;;;20.92;34.90
46710;BME280;32442;51.514;-0.178;2023-02-28T09:43:26;103095.56;;;20.94;35.04
46710;BME280;32442;51.514;-0.178;2023-02-28T09:46:02;103096.75;;;20.98;34.76
46710;BME280;32442;51.514;-0.178;2023-02-28T09:48:35;103077.63;;;21.00;34.77
46710;BME280;32442;51.514;-0.178;2023-02-28T09:53:37;103078.56;;;21.05;34.84
46710;BME280;32442;51.514;-0.178;2023-02-28T09:56:08;103076.84;;;21.04;34.87
46710;BME280;32442;51.514;-0.178;2023-02-28T10:03:38;103073.19;;;21.04;34.72
46710;BME280;32442;51.514;-0.178;2023-02-28T10:06:08;103079.41;;;21.06;34.39
46710;BME280;32442;51.514;-0.178;2023-02-28T10:11:12;103075.88;;;20.94;34.45
46710;BME280;32442;51.514;-0.178;2023-02-28T10:16:21;103088.16;;;20.88;34.47
46710;BME280;32442;51.514;-0.178;2023-02-28T10:23:48;103079.03;;;20.80;34.96
46710;BME280;32442;51.514;-0.178;2023-02-28T10:26:16;103080.19;;;20.79;34.55
46710;BME280;32442;51.514;-0.178;2023-02-28T10:28:44;103075.06;;;20.76;34.96
46710;BME280;32442;51.514;-0.178;2023-02-28T10:31:14;103073.00;;;20.72;34.89
46710;BME280;32442;51.514;-0.178;2023-02-28T10:33:43;103068.53;;;20.71;34.86
46710;BME280;32442;51.514;-0.178;2023-02-28T10:36:13;103068.53;;;20.71;34.96
46710;BME280;32442;51.514;-0.178;2023-02-28T10:38:41;103070.16;;;20.67;34.79
46710;BME280;32442;51.514;-0.178;2023-02-28T10:41:08;103075.41;;;20.63;35.17
46710;BME280;32442;51.514;-0.178;2023-02-28T10:43:40;103069.56;;;20.65;34.82
46710;BME280;32442;51.514;-0.178;2023-02-28T10:48:49;103066.75;;;20.65;35.26
46710;BME280;32442;51.514;-0.178;2023-02-28T10:51:22;103071.34;;;20.71;35.16
46710;BME280;32442;51.514;-0.178;2023-02-28T10:53:50;103064.66;;;20.77;35.10
46710;BME280;32442;51.514;-0.178;2023-02-28T10:56:27;103061.09;;;20.81;34.96
46710;BME280;32442;51.514;-0.178;2023-02-28T11:01:24;103058.09;;;20.88;35.43
46710;BME280;32442;51.514;-0.178;2023-02-28T11:03:53;103053.06;;;20.90;35.44
46710;BME280;32442;51.514;-0.178;2023-02-28T11:06:21;103053.66;;;20.92;35.42
46710;BME280;32442;51.514;-0.178;2023-02-28T11:08:51;103052.88;;;20.97;35.50
46710;BME280;32442;51.514;-0.178;2023-02-28T11:11:18;103048.69;;;20.99;35.51
46710;BME280;32442;51.514;-0.178;2023-02-28T11:13:47;103049.53;;;21.00;35.13
46710;BME280;32442;51.514;-0.178;2023-02-28T11:16:16;103050.13;;;21.02;35.49
46710;BME280;32442;51.514;-0.178;2023-02-28T11:18:46;103049.84;;;21.03;35.22
46710;BME280;32442;51.514;-0.178;2023-02-28T11:21:16;103053.53;;;21.04;35.21
46710;BME280;32442;51.514;-0.178;2023-02-28T11:23:45;103041.19;;;21.05;35.34
46710;BME280;32442;51.514;-0.178;2023-02-28T11:26:12;103027.97;;;21.05;35.06
46710;BME280;32442;51.514;-0.178;2023-02-28T11:28:40;103030.53;;;21.07;34.92
46710;BME280;32442;51.514;-0.178;2023-02-28T11:36:11;103011.09;;;21.05;35.18
46710;BME280;32442;51.514;-0.178;2023-02-28T11:38:39;102995.03;;;21.01;34.99
46710;BME280;32442;51.514;-0.178;2023-02-28T11:41:12;102974.19;;;20.97;35.32
46710;BME280;32442;51.514;-0.178;2023-02-28T11:48:45;102976.63;;;20.88;35.15
46710;BME280;32442;51.514;-0.178;2023-02-28T11:56:16;103015.63;;;20.84;35.14
46710;BME280;32442;51.514;-0.178;2023-02-28T11:58:50;103016.97;;;20.82;35.11
46710;BME280;32442;51.514;-0.178;2023-02-28T12:13:56;102990.97;;;20.70;35.48
46710;BME280;32442;51.514;-0.178;2023-02-28T12:29:02;102961.81;;;20.54;35.91
46710;BME280;32442;51.514;-0.178;2023-02-28T12:31:34;102951.97;;;20.52;35.91
46710;BME280;32442;51.514;-0.178;2023-02-28T12:34:04;102946.03;;;20.48;35.82
46710;BME280;32442;51.514;-0.178;2023-02-28T12:36:35;102933.34;;;20.46;35.63
46710;BME280;32442;51.514;-0.178;2023-02-28T12:39:05;102921.78;;;20.42;36.18
46710;BME280;32442;51.514;-0.178;2023-02-28T12:41:39;102922.56;;;20.37;36.20
46710;BME280;32442;51.514;-0.178;2023-02-28T12:44:09;102916.63;;;20.34;36.01
46710;BME280;32442;51.514;-0.178;2023-02-28T12:46:41;102912.09;;;20.33;36.16
46710;BME280;32442;51.514;-0.178;2023-02-28T12:49:13;102916.88;;;20.32;35.85
46710;BME280;32442;51.514;-0.178;2023-02-28T12:51:43;102911.75;;;20.29;36.36
46710;BME280;32442;51.514;-0.178;2023-02-28T13:09:11;102898.25;;;20.10;36.46
46710;BME280;32442;51.514;-0.178;2023-02-28T13:11:43;102888.75;;;20.11;36.19
46710;BME280;32442;51.514;-0.178;2023-02-28T13:19:16;102873.13;;;19.98;36.19
46710;BME280;32442;51.514;-0.178;2023-02-28T13:21:44;102874.47;;;19.95;36.68
46710;BME280;32442;51.514;-0.178;2023-02-28T13:24:37;102871.34;;;19.92;36.31
46710;BME280;32442;51.514;-0.178;2023-02-28T13:29:28;102858.69;;;19.89;36.54
46710;BME280;32442;51.514;-0.178;2023-02-28T13:34:33;102852.72;;;19.86;36.74
46710;BME280;32442;51.514;-0.178;2023-02-28T13:44:32;102834.38;;;19.78;36.83
46710;BME280;32442;51.514;-0.178;2023-02-28T13:47:22;102835.75;;;19.76;36.71
46710;BME280;32442;51.514;-0.178;2023-02-28T13:49:51;102835.41;;;19.72;36.79
46710;BME280;32442;51.514;-0.178;2023-02-28T13:52:20;102840.69;;;19.69;36.94
46710;BME280;32442;51.514;-0.178;2023-02-28T13:57:21;102838.50;;;19.71;37.08
46710;BME280;32442;51.514;-0.178;2023-02-28T14:07:26;102849.13;;;19.52;37.04
46710;BME280;32442;51.514;-0.178;2023-02-28T14:10:03;102837.91;;;19.52;36.99
46710;BME280;32442;51.514;-0.178;2023-02-28T14:15:02;102831.13;;;19.48;36.86
46710;BME280;32442;51.514;-0.178;2023-02-28T14:17:32;102838.91;;;19.46;37.15
46710;BME280;32442;51.514;-0.178;2023-02-28T14:19:59;102825.75;;;19.46;37.24
46710;BME280;32442;51.514;-0.178;2023-02-28T14:32:35;102810.19;;;19.39;37.07
46710;BME280;32442;51.514;-0.178;2023-02-28T14:37:38;102816.88;;;19.38;37.33
46710;BME280;32442;51.514;-0.178;2023-02-28T14:42:37;102795.16;;;19.45;37.42
46710;BME280;32442;51.514;-0.178;2023-02-28T14:45:05;102801.38;;;19.47;37.28
46710;BME280;32442;51.514;-0.178;2023-02-28T14:47:33;102801.47;;;19.52;37.42
46710;BME280;32442;51.514;-0.178;2023-02-28T14:50:02;102790.03;;;19.59;37.42
46710;BME280;32442;51.514;-0.178;2023-02-28T14:52:31;102794.63;;;19.65;37.54
46710;BME280;32442;51.514;-0.178;2023-02-28T14:55:00;102788.84;;;19.71;37.08
46710;BME280;32442;51.514;-0.178;2023-02-28T14:57:31;102781.94;;;19.79;37.15
46710;BME280;32442;51.514;-0.178;2023-02-28T15:02:31;102791.41;;;19.94;37.13
46710;BME280;32442;51.514;-0.178;2023-02-28T15:05:02;102783.91;;;20.00;37.32
46710;BME280;32442;51.514;-0.178;2023-02-28T15:07:37;102784.00;;;20.05;37.05
46710;BME280;32442;51.514;-0.178;2023-02-28T15:12:34;102778.50;;;20.15;36.80
46710;BME280;32442;51.514;-0.178;2023-02-28T15:15:02;102781.28;;;20.32;37.39
46710;BME280;32442;51.514;-0.178;2023-02-28T15:17:29;102771.94;;;20.48;37.88
46710;BME280;32442;51.514;-0.178;2023-02-28T15:19:56;102784.38;;;20.57;37.89
46710;BME280;32442;51.514;-0.178;2023-02-28T15:24:55;102769.38;;;20.73;38.04
46710;BME280;32442;51.514;-0.178;2023-02-28T15:29:54;102779.03;;;20.82;37.31
46710;BME280;32442;51.514;-0.178;2023-02-28T15:34:52;102778.22;;;20.87;37.45
46710;BME280;32442;51.514;-0.178;2023-02-28T15:39:50;102776.84;;;20.90;37.29
46710;BME280;32442;51.514;-0.178;2023-02-28T15:42:21;102778.53;;;20.91;37.15
46710;BME280;32442;51.514;-0.178;2023-02-28T15:44:49;102770.94;;;20.91;37.07
46710;BME280;32442;51.514;-0.178;2023-02-28T15:52:14;102771.81;;;20.92;37.02
46710;BME280;32442;51.514;-0.178;2023-02-28T15:54:42;102779.38;;;20.91;36.80
46710;BME280;32442;51.514;-0.178;2023-02-28T15:57:13;102783.31;;;20.90;36.62
46710;BME280;32442;51.514;-0.178;2023-02-28T15:59:42;102789.78;;;20.91;37.01
46710;BME280;32442;51.514;-0.178;2023-02-28T16:02:16;102780.78;;;20.89;36.84
46710;BME280;32442;51.514;-0.178;2023-02-28T16:07:15;102781.28;;;20.85;36.96
46710;BME280;32442;51.514;-0.178;2023-02-28T16:09:42;102777.63;;;20.85;36.65
46710;BME280;32442;51.514;-0.178;2023-02-28T16:12:09;102780.72;;;20.83;36.63
46710;BME280;32442;51.514;-0.178;2023-02-28T16:14:40;102780.72;;;20.83;36.94
46710;BME280;32442;51.514;-0.178;2023-02-28T16:17:09;102771.50;;;20.88;36.56
46710;BME280;32442;51.514;-0.178;2023-02-28T16:19:43;102781.34;;;20.91;36.59
46710;BME280;32442;51.514;-0.178;2023-02-28T16:22:10;102775.22;;;20.94;36.90
46710;BME280;32442;51.514;-0.178;2023-02-28T16:24:37;102780.03;;;20.98;36.74
46710;BME280;32442;51.514;-0.178;2023-02-28T16:27:05;102788.75;;;21.02;36.83
46710;BME280;32442;51.514;-0.178;2023-02-28T16:29:34;102794.44;;;21.07;36.46
46710;BME280;32442;51.514;-0.178;2023-02-28T16:32:04;102781.81;;;21.09;36.36
46710;BME280;32442;51.514;-0.178;2023-02-28T16:34:31;102796.19;;;21.13;36.50
46710;BME280;32442;51.514;-0.178;2023-02-28T16:36:59;102791.16;;;21.15;36.69
46710;BME280;32442;51.514;-0.178;2023-02-28T16:39:26;102804.09;;;21.16;36.69
46710;BME280;32442;51.514;-0.178;2023-02-28T16:41:53;102805.78;;;21.17;36.70
46710;BME280;32442;51.514;-0.178;2023-02-28T16:44:24;102799.06;;;21.18;36.71
46710;BME280;32442;51.514;-0.178;2023-02-28T16:46:53;102802.97;;;21.17;36.34
46710;BME280;32442;51.514;-0.178;2023-02-28T16:49:20;102805.28;;;21.20;36.28
46710;BME280;32442;51.514;-0.178;2023-02-28T16:51:47;102793.16;;;21.19;36.24
46710;BME280;32442;51.514;-0.178;2023-02-28T16:54:15;102797.09;;;21.18;36.59